Time;durP1;ratioP1;P1;durP2;ratioP2;P2;SDS_P1;SDS_P2;PMS_P1;PMS_P2;Temp;Humidity;BMP_temperature;BMP_pressure;BME280_temperature;BME280_humidity;BME280_pressure;Samples;Min_cycle;Max_cycle;Signal;HPM_P1;HPM_P2
2022/06/15 00:08:32;;;;;;;;;10.00;9.33;;;;;-147.17;100.00;7939.00;5064080;28;81057;-67
2022/06/15 00:11:21;;;;;;;;;8.33;8.33;;;;;-147.17;100.00;7440.50;5070269;27;51256;-67
2022/06/15 00:13:47;;;;;;;;;8.00;8.00;;;;;-147.17;100.00;6942.09;5062661;27;51162;-66
2022/06/15 00:16:14;;;;;;;;;7.33;7.33;;;;;-147.17;100.00;6692.91;5065184;28;51438;-65
2022/06/15 00:18:40;;;;;;;;;7.67;7.33;;;;;-147.17;100.00;6194.59;5064689;27;51145;-67
2022/06/15 00:21:06;;;;;;;;;7.33;7.33;;;;;-147.17;100.00;5696.34;5071694;27;51091;-66
2022/06/15 00:23:34;;;;;;;;;9.00;8.67;;;;;-147.17;100.00;5447.22;5071656;27;51234;-67
2022/06/15 00:25:59;;;;;;;;;7.67;7.67;;;;;-147.17;100.00;4949.06;5068747;28;50996;-66
2022/06/15 00:28:26;;;;;;;;;7.00;6.00;;;;;-147.17;100.00;4450.97;5057434;27;51848;-67
2022/06/15 00:30:52;;;;;;;;;7.00;7.00;;;;;-147.17;100.00;3952.94;5062411;28;51117;-66
2022/06/15 00:33:21;;;;;;;;;7.67;7.67;;;;;-147.17;100.00;3703.94;5070418;27;51002;-67
2022/06/15 00:35:58;;;;;;;;;8.00;8.00;;;;;-147.17;100.00;3703.94;5074960;27;51328;-66
2022/06/15 00:38:51;;;;;;;;;8.00;7.00;;;;;-147.17;100.00;2708.13;5072105;27;52649;-67
2022/06/15 00:41:21;;;;;;;;;7.67;7.67;;;;;-147.17;100.00;2708.13;5054316;27;51240;-68
2022/06/15 00:43:50;;;;;;;;;8.00;7.67;;;;;-147.17;100.00;2210.31;5057392;27;51341;-66
2022/06/15 00:46:31;;;;;;;;;8.00;8.00;;;;;-147.17;100.00;1712.56;5066445;28;51261;-68
2022/06/15 00:49:21;;;;;;;;;7.00;7.00;;;;;-147.17;100.00;1712.56;5073939;27;51207;-66
2022/06/15 00:51:51;;;;;;;;;7.33;7.33;;;;;-147.17;100.00;1463.72;5065637;27;51138;-69
2022/06/15 00:54:16;;;;;;;;;9.00;9.00;;;;;-147.17;100.00;966.09;5074037;27;51180;-67
2022/06/15 00:56:43;;;;;;;;;11.00;10.00;;;;;-147.17;100.00;219.72;5072732;28;51305;-67
2022/06/15 00:59:40;;;;;;;;;7.00;7.00;;;;;-147.17;100.00;-775.19;5063569;28;51746;-66
2022/06/15 01:02:05;;;;;;;;;8.00;7.67;;;;;-147.17;100.00;-1769.84;5061560;28;51275;-66
2022/06/15 01:04:40;;;;;;;;;7.33;7.33;;;;;-147.17;100.00;-2018.47;5074570;27;51312;-67
2022/06/15 01:07:36;;;;;;;;;7.00;7.00;;;;;-147.17;100.00;-2267.06;5073963;28;50964;-67
2022/06/15 01:10:25;;;;;;;;;9.00;9.00;;;;;-147.17;100.00;-3012.78;5071525;28;51987;-67
2022/06/15 01:12:56;;;;;;;;;8.00;8.00;;;;;-147.17;100.00;-3261.34;5056681;28;51207;-65
2022/06/15 01:15:44;;;;;;;;;8.67;8.67;;;;;-147.17;100.00;-3758.38;5068505;28;51214;-67
2022/06/15 01:18:16;;;;;;;;;9.00;8.00;;;;;-147.17;100.00;-4752.25;5061123;27;51158;-65
2022/06/15 01:21:08;;;;;;;;;7.33;7.33;;;;;-147.17;100.00;-5000.69;5070463;28;52098;-67
2022/06/15 01:24:07;;;;;;;;;7.00;6.33;;;;;-147.17;100.00;-5994.25;5066482;28;51038;-67
2022/06/15 01:27:24;;;;;;;;;7.00;6.33;;;;;-147.17;100.00;-6739.25;5069566;27;51392;-65
2022/06/15 01:30:17;;;;;;;;;6.67;6.67;;;;;-147.17;100.00;-7235.84;5040855;27;51216;-66
2022/06/15 01:33:04;;;;;;;;;9.33;9.00;;;;;-147.17;100.00;-7732.34;5072312;28;51212;-68
2022/06/15 01:35:52;;;;;;;;;9.00;7.00;;;;;-147.17;100.00;-8725.22;5066613;27;51133;-65
2022/06/15 01:38:21;;;;;;;;;7.00;7.00;;;;;-147.17;100.00;-8973.38;5058977;28;51038;-66
2022/06/15 01:41:37;;;;;;;;;7.33;7.33;;;;;-147.17;100.00;-9717.81;5065916;28;51165;-66
2022/06/15 01:44:08;;;;;;;;;7.00;7.00;;;;;-147.17;100.00;-10214.00;5038153;28;52221;-67
2022/06/15 01:46:39;;;;;;;;;8.00;8.00;;;;;-147.17;100.00;-10958.19;5054867;28;50874;-67
2022/06/15 01:49:08;;;;;;;;;8.67;8.00;;;;;-147.17;100.00;-11206.22;5070658;28;51347;-66
2022/06/15 01:51:40;;;;;;;;;8.33;8.00;;;;;-147.17;100.00;-11702.25;5063115;27;51205;-66
2022/06/15 01:54:11;;;;;;;;;5.33;5.33;;;;;-147.17;100.00;-12198.19;5069245;27;51515;-67
2022/06/15 01:56:44;;;;;;;;;7.00;7.00;;;;;-147.17;100.00;-12446.13;5062267;28;50938;-67
2022/06/15 01:59:29;;;;;;;;;7.33;7.33;;;;;-147.17;100.00;-12694.06;5068178;27;51053;-67
2022/06/15 02:02:12;;;;;;;;;8.00;8.00;;;;;-147.17;100.00;-13189.88;5062351;27;50952;-67
2022/06/15 02:04:45;;;;;;;;;5.67;5.00;;;;;-147.17;100.00;-13437.75;5054666;28;51175;-66
2022/06/15 02:07:45;;;;;;;;;9.67;8.00;;;;;-147.17;100.00;-13933.50;5067557;28;51008;-67
2022/06/15 02:10:29;;;;;;;;;8.00;7.33;;;;;-147.17;100.00;-14181.31;5052798;28;51322;-67
2022/06/15 02:13:11;;;;;;;;;7.67;7.67;;;;;-147.17;100.00;-14676.94;5069664;28;51098;-67
2022/06/15 02:15:42;;;;;;;;;6.67;6.00;;;;;-147.17;100.00;-14924.75;5070170;28;52549;-67
2022/06/15 02:18:12;;;;;;;;;8.00;7.00;;;;;-147.17;100.00;-15172.50;5061880;27;51180;-66
2022/06/15 02:20:43;;;;;;;;;7.67;7.00;;;;;-147.17;100.00;-15420.25;5067018;28;51127;-67
2022/06/15 02:23:11;;;;;;;;;9.00;9.00;;;;;-147.17;100.00;-15668.00;5069792;27;51220;-68
2022/06/15 02:25:49;;;;;;;;;7.00;7.00;;;;;-147.17;100.00;-15915.72;5065716;28;52006;-66
2022/06/15 02:28:16;;;;;;;;;6.67;6.67;;;;;-147.17;100.00;-15917.19;5065643;27;51080;-66
2022/06/15 02:30:42;;;;;;;;;7.00;7.00;;;;;-147.17;100.00;-15917.19;5066726;27;51285;-66
2022/06/15 02:33:32;;;;;;;;;7.00;6.33;;;;;-147.17;100.00;-15917.19;5065745;27;51210;-67
2022/06/15 02:36:00;;;;;;;;;9.00;7.00;;;;;-147.17;100.00;-15917.19;5073209;27;52121;-67
2022/06/15 02:38:28;;;;;;;;;7.67;6.67;;;;;-147.17;100.00;-15917.19;5070832;27;51264;-67
2022/06/15 02:40:54;;;;;;;;;9.00;8.00;;;;;-147.17;100.00;-15917.19;5063046;27;51457;-67
2022/06/15 02:43:24;;;;;;;;;7.33;7.00;;;;;-147.17;100.00;-15917.19;5071588;27;51070;-66
2022/06/15 02:45:50;;;;;;;;;7.00;7.00;;;;;-147.17;100.00;-15917.19;5071324;27;52012;-67
2022/06/15 02:48:17;;;;;;;;;7.00;7.00;;;;;-147.17;100.00;-15917.19;5072410;27;50961;-67
2022/06/15 02:50:52;;;;;;;;;7.00;7.00;;;;;-147.17;100.00;-15917.19;5058069;28;51239;-66
2022/06/15 02:53:22;;;;;;;;;6.67;6.67;;;;;-147.17;100.00;-15917.19;5072606;27;51393;-66
2022/06/15 02:55:49;;;;;;;;;8.00;7.00;;;;;-147.17;100.00;-15917.19;5066282;27;51260;-66
2022/06/15 02:58:24;;;;;;;;;8.67;8.00;;;;;-147.17;100.00;-15917.19;5062541;28;51381;-67
2022/06/15 03:00:50;;;;;;;;;7.00;7.00;;;;;-147.17;100.00;-15917.19;5066286;28;51146;-67
2022/06/15 03:03:16;;;;;;;;;7.67;7.67;;;;;-147.17;100.00;-15917.19;5068356;27;51379;-67
2022/06/15 03:05:47;;;;;;;;;8.67;7.67;;;;;-147.17;100.00;-15917.19;5054063;28;51892;-66
2022/06/15 03:08:12;;;;;;;;;8.00;8.00;;;;;-147.17;100.00;-15917.19;5071507;27;51165;-68
2022/06/15 03:10:38;;;;;;;;;9.33;9.00;;;;;-147.17;100.00;-15917.19;5067573;27;51290;-65
2022/06/15 03:13:03;;;;;;;;;6.00;6.00;;;;;-147.17;100.00;-15917.19;5072481;27;51141;-68
2022/06/15 03:15:28;;;;;;;;;8.00;8.00;;;;;-147.17;100.00;-15917.19;5071086;27;51158;-68
2022/06/15 03:17:54;;;;;;;;;6.67;6.67;;;;;-147.17;100.00;-15917.19;5059926;28;51067;-67
2022/06/15 03:20:19;;;;;;;;;7.33;7.33;;;;;-147.17;100.00;-15917.19;5071586;28;52129;-67
2022/06/15 03:22:45;;;;;;;;;7.33;7.33;;;;;-147.17;100.00;-15917.19;5070896;28;51254;-66
2022/06/15 03:25:11;;;;;;;;;9.33;7.67;;;;;-147.17;100.00;-15917.19;5061246;27;51005;-67
2022/06/15 03:27:36;;;;;;;;;8.00;8.00;;;;;-147.17;100.00;-15917.19;5064850;27;51206;-68
2022/06/15 03:30:06;;;;;;;;;8.67;8.67;;;;;-147.17;100.00;-15917.19;5069029;28;51279;-67
2022/06/15 03:32:31;;;;;;;;;8.00;8.00;;;;;-147.17;100.00;-15917.19;5072375;27;51122;-67
2022/06/15 03:34:57;;;;;;;;;8.00;8.00;;;;;-147.17;100.00;-15917.19;5072539;27;51105;-67
2022/06/15 03:37:22;;;;;;;;;8.33;8.33;;;;;-147.17;100.00;-15917.19;5069147;27;51086;-67
2022/06/15 03:39:47;;;;;;;;;7.67;7.67;;;;;-147.17;100.00;-15917.19;5070559;28;52692;-67
2022/06/15 03:42:16;;;;;;;;;9.33;9.33;;;;;-147.17;100.00;-15917.19;5071837;27;51022;-67
2022/06/15 03:44:42;;;;;;;;;9.75;9.75;;;;;-147.17;100.00;-15917.19;5075099;27;51787;-66
2022/06/15 03:47:17;;;;;;;;;8.33;8.33;;;;;-147.17;100.00;-15917.19;5057964;27;51065;-67
2022/06/15 03:49:44;;;;;;;;;6.67;6.67;;;;;-147.17;100.00;-15917.19;5059258;28;51118;-67
2022/06/15 03:52:10;;;;;;;;;10.33;9.33;;;;;-147.17;100.00;-15917.19;5053597;28;51090;-67
2022/06/15 03:54:36;;;;;;;;;10.00;10.00;;;;;-147.17;100.00;-15917.19;5066015;28;51312;-67
2022/06/15 03:57:02;;;;;;;;;9.67;8.67;;;;;-147.17;100.00;-15917.19;5071831;27;51053;-67
2022/06/15 03:59:28;;;;;;;;;9.67;9.67;;;;;-147.17;100.00;-15917.19;5067923;27;51110;-67
2022/06/15 04:01:53;;;;;;;;;9.67;9.67;;;;;-147.17;100.00;-15917.19;5061480;28;50874;-68
2022/06/15 04:04:18;;;;;;;;;10.33;9.67;;;;;-147.17;100.00;-15917.19;5058256;27;51614;-68
2022/06/15 04:06:44;;;;;;;;;9.33;8.33;;;;;-147.17;100.00;-15917.19;5071229;27;51061;-66
2022/06/15 04:09:10;;;;;;;;;13.33;11.67;;;;;-147.17;100.00;-15917.19;5069303;27;51482;-66
2022/06/15 04:14:19;;;;;;;;;9.00;9.00;;;;;-147.17;100.00;-15917.19;5067366;28;51108;-67
2022/06/15 04:16:44;;;;;;;;;8.67;8.33;;;;;-147.17;100.00;-15917.19;5063473;27;51039;-67
2022/06/15 04:19:11;;;;;;;;;11.00;9.00;;;;;-147.17;100.00;-15917.19;5057770;28;51257;-67
2022/06/15 04:21:36;;;;;;;;;9.00;9.00;;;;;-147.17;100.00;-15917.19;5071489;28;50975;-67
2022/06/15 04:24:02;;;;;;;;;7.33;7.33;;;;;-147.17;100.00;-15917.19;5064567;27;51749;-66
2022/06/15 04:26:28;;;;;;;;;10.33;10.00;;;;;-147.17;100.00;-15917.19;5068189;28;51177;-68
2022/06/15 04:28:53;;;;;;;;;9.33;9.33;;;;;-147.17;100.00;-15917.19;5066510;27;51169;-68
2022/06/15 04:31:19;;;;;;;;;8.33;8.33;;;;;-147.17;100.00;-15917.19;5071820;27;51309;-67
2022/06/15 04:33:44;;;;;;;;;10.33;10.33;;;;;-147.17;100.00;-15917.19;5071550;27;51054;-68
2022/06/15 04:36:12;;;;;;;;;8.67;8.67;;;;;-147.17;100.00;-15917.19;5071661;27;51205;-67
2022/06/15 04:38:38;;;;;;;;;9.75;9.75;;;;;-147.17;100.00;-15917.19;5063471;27;51117;-66
2022/06/15 04:41:03;;;;;;;;;10.33;9.00;;;;;-147.17;100.00;-15917.19;5086392;27;51173;-68
2022/06/15 04:43:29;;;;;;;;;10.00;9.00;;;;;-147.17;100.00;-15917.19;5065990;27;53040;-67
2022/06/15 04:45:54;;;;;;;;;11.00;11.00;;;;;-147.17;100.00;-15917.19;5067126;28;50956;-66
2022/06/15 04:48:20;;;;;;;;;11.00;10.00;;;;;-147.17;100.00;-15917.19;5062499;27;51003;-66
2022/06/15 04:50:46;;;;;;;;;10.00;9.33;;;;;-147.17;100.00;-15917.19;5057344;28;51284;-66
2022/06/15 04:53:12;;;;;;;;;9.00;8.67;;;;;-147.17;100.00;-15917.19;5058055;28;52074;-68
2022/06/15 04:55:37;;;;;;;;;7.67;6.00;;;;;-147.17;100.00;-15917.19;5070778;27;51382;-67
2022/06/15 04:58:04;;;;;;;;;11.00;10.00;;;;;-147.17;100.00;-15917.19;5060213;27;51119;-66
2022/06/15 05:00:35;;;;;;;;;9.67;8.33;;;;;-147.17;100.00;-15917.19;5069135;27;51224;-68
2022/06/15 05:03:01;;;;;;;;;7.33;7.33;;;;;-147.17;100.00;-15917.19;5068092;28;51288;-66
2022/06/15 05:05:26;;;;;;;;;8.00;8.00;;;;;-147.17;100.00;-15917.19;5063704;27;51298;-66
2022/06/15 05:07:53;;;;;;;;;12.00;12.00;;;;;-147.17;100.00;-15917.19;5070232;27;51430;-67
2022/06/15 05:10:21;;;;;;;;;11.67;10.67;;;;;-147.17;100.00;-15917.19;5066588;27;51202;-68
2022/06/15 05:12:47;;;;;;;;;10.33;10.00;;;;;-147.17;100.00;-15917.19;5058100;27;51169;-65
2022/06/15 05:15:13;;;;;;;;;11.67;11.67;;;;;-147.17;100.00;-15917.19;5059356;28;51196;-67
2022/06/15 05:17:41;;;;;;;;;10.67;10.67;;;;;-147.17;100.00;-15917.19;5056539;27;51357;-66
2022/06/15 05:20:11;;;;;;;;;10.00;10.00;;;;;-147.17;100.00;-15917.19;5060068;27;50928;-64
2022/06/15 05:22:37;;;;;;;;;12.00;12.00;;;;;-147.17;100.00;-15917.19;5063709;28;51322;-65
2022/06/15 05:25:04;;;;;;;;;11.67;11.67;;;;;-147.17;100.00;-15917.19;5068894;27;51219;-65
2022/06/15 05:27:31;;;;;;;;;12.00;12.00;;;;;-147.17;100.00;-15917.19;5060143;27;51111;-66
2022/06/15 05:29:56;;;;;;;;;10.33;9.67;;;;;-147.17;100.00;-15917.19;5060934;27;51199;-66
2022/06/15 05:32:22;;;;;;;;;12.33;11.00;;;;;-147.17;100.00;-15917.19;5068391;27;51540;-66
2022/06/15 05:34:47;;;;;;;;;11.33;11.00;;;;;-147.17;100.00;-15915.72;5066172;27;51223;-65
2022/06/15 05:37:12;;;;;;;;;13.33;12.67;;;;;-147.17;100.00;-15420.25;5057961;28;52488;-64
2022/06/15 05:39:38;;;;;;;;;13.00;12.00;;;;;-147.17;100.00;-14429.16;5060913;27;51207;-64
2022/06/15 05:42:04;;;;;;;;;13.67;12.33;;;;;-147.17;100.00;-13189.88;5064709;28;52316;-64
2022/06/15 05:47:00;;;;;;;;;12.33;10.67;;;;;-147.17;100.00;-10214.00;5060290;27;51060;-64
2022/06/15 05:49:26;;;;;;;;;12.00;10.33;;;;;-147.17;100.00;-8973.38;5074116;27;50908;-64
2022/06/15 05:51:52;;;;;;;;;10.00;10.00;;;;;-147.17;100.00;-7235.84;5064913;27;50933;-64
2022/06/15 05:54:18;;;;;;;;;11.33;11.33;;;;;-147.17;100.00;-5994.25;5074187;28;51176;-64
2022/06/15 05:56:43;;;;;;;;;10.00;10.00;;;;;-147.17;100.00;-4006.88;5075289;27;50983;-64
2022/06/15 05:59:08;;;;;;;;;11.00;10.33;;;;;-147.17;100.00;-2515.66;5074186;27;51337;-63
2022/06/15 06:01:36;;;;;;;;;12.67;11.33;;;;;-147.17;100.00;-775.19;5065159;27;51411;-63
2022/06/15 06:04:03;;;;;;;;;14.00;12.67;;;;;-147.17;100.00;219.72;5067147;28;51265;-63
2022/06/15 06:06:29;;;;;;;;;11.33;11.33;;;;;-147.17;100.00;1463.72;5053155;28;51091;-65
2022/06/15 06:08:55;;;;;;;;;14.67;14.00;;;;;-147.17;100.00;2708.13;5053863;28;51229;-64
2022/06/15 06:11:21;;;;;;;;;11.33;10.33;;;;;-147.17;100.00;4450.97;5073372;27;51079;-64
2022/06/15 06:13:48;;;;;;;;;11.67;11.00;;;;;-147.17;100.00;5945.44;5058141;27;51113;-63
2022/06/15 06:16:14;;;;;;;;;13.00;12.67;;;;;-147.17;100.00;8188.25;5059841;28;51253;-65
2022/06/15 06:18:40;;;;;;;;;11.00;10.00;;;;;-147.17;100.00;9434.84;5069726;27;51463;-63
2022/06/15 06:21:05;;;;;;;;;12.00;11.00;;;;;-147.17;100.00;11180.69;5053150;28;51733;-63
2022/06/15 06:23:40;;;;;;;;;11.00;11.00;;;;;-147.17;100.00;13426.53;5052015;28;51143;-64
2022/06/15 06:26:06;;;;;;;;;11.00;10.67;;;;;-147.17;100.00;14425.13;5053357;28;51118;-67
2022/06/15 06:28:35;;;;;;;;;8.00;8.00;;;;;-147.17;100.00;15423.94;5073320;28;50996;-64
2022/06/15 06:31:03;;;;;;;;;13.67;13.00;;;;;-147.17;100.00;16423.03;5073025;28;50994;-64
2022/06/15 06:33:31;;;;;;;;;10.67;10.33;;;;;-147.17;100.00;18308.72;5071949;28;51222;-63
2022/06/15 06:36:03;;;;;;;;;12.67;11.33;;;;;-147.17;100.00;20343.81;5073247;28;51093;-63
2022/06/15 06:38:28;;;;;;;;;13.67;12.67;;;;;-147.17;100.00;21058.88;5073355;27;51175;-63
2022/06/15 06:40:55;;;;;;;;;13.67;13.33;;;;;-147.17;100.00;21918.69;5072817;27;51157;-63
2022/06/15 06:43:22;;;;;;;;;13.67;13.00;;;;;-147.17;100.00;22778.69;5072665;27;51058;-64
2022/06/15 06:45:49;;;;;;;;;11.67;11.00;;;;;-147.17;100.00;23740.56;5057798;27;51083;-63
2022/06/15 06:48:15;;;;;;;;;9.33;9.00;;;;;-147.17;100.00;24600.97;5065070;27;50915;-63
2022/06/15 06:50:40;;;;;;;;;11.67;11.00;;;;;-147.17;100.00;25309.00;5056756;28;51229;-62
2022/06/15 06:53:10;;;;;;;;;13.33;12.33;;;;;-147.17;100.00;25919.34;5052509;28;51056;-63
2022/06/15 06:55:36;;;;;;;;;10.67;10.00;;;;;-147.17;100.00;26261.72;5051290;28;51118;-63
2022/06/15 06:58:02;;;;;;;;;9.67;9.67;;;;;-147.17;100.00;26662.81;5055837;28;51340;-65
2022/06/15 07:00:30;;;;;;;;;14.00;13.00;;;;;-147.17;100.00;27062.00;5070936;28;51811;-64
2022/06/15 07:02:58;;;;;;;;;11.00;10.67;;;;;-147.17;100.00;27529.75;5055192;27;51034;-63
2022/06/15 07:05:23;;;;;;;;;12.00;10.67;;;;;-147.17;100.00;28052.34;5052446;28;51160;-63
2022/06/15 07:07:49;;;;;;;;;10.67;10.00;;;;;-147.17;100.00;28796.22;5052249;28;51230;-63
2022/06/15 07:10:15;;;;;;;;;10.33;10.33;;;;;-147.17;100.00;29638.16;5051204;28;51190;-63
2022/06/15 07:12:42;;;;;;;;;11.33;11.00;;;;;-147.17;100.00;30210.00;5052055;28;51145;-63
2022/06/15 07:15:10;;;;;;;;;11.00;10.67;;;;;-147.17;100.00;30378.44;5055437;28;51063;-63
2022/06/15 07:17:35;;;;;;;;;10.33;10.33;;;;;-147.17;100.00;30599.78;5058525;27;51292;-63
2022/06/15 07:20:01;;;;;;;;;22.50;18.00;;;;;-147.17;100.00;30298.16;5051416;28;51099;-63
2022/06/15 07:22:26;;;;;;;;;13.00;12.00;;;;;-147.17;100.00;30012.22;5050317;28;50896;-63
2022/06/15 07:24:51;;;;;;;;;10.00;9.67;;;;;-147.17;100.00;30433.28;5052261;28;51574;-63
2022/06/15 07:27:17;;;;;;;;;10.33;10.00;;;;;-147.17;100.00;30705.53;5052086;28;51374;-63
2022/06/15 07:29:46;;;;;;;;;11.00;10.00;;;;;-147.17;100.00;31408.81;5051839;28;51118;-64
2022/06/15 07:32:14;;;;;;;;;10.67;9.67;;;;;-147.17;100.00;31745.78;5064751;28;51170;-62
2022/06/15 07:34:40;;;;;;;;;10.33;9.00;;;;;-147.17;100.00;31916.25;5072175;28;50916;-62
2022/06/15 07:37:07;;;;;;;;;8.33;8.33;;;;;-147.17;100.00;32253.25;5072335;28;51192;-63
2022/06/15 07:39:33;;;;;;;;;7.00;7.00;;;;;-147.17;100.00;32321.84;5071428;27;52266;-63
2022/06/15 07:41:59;;;;;;;;;10.00;9.67;;;;;-147.17;100.00;32047.53;5071765;27;51014;-63
2022/06/15 07:44:26;;;;;;;;;9.00;8.33;;;;;-147.17;100.00;32453.13;5071742;27;51061;-62
2022/06/15 07:49:54;;;;;;;;;10.33;10.33;;;;;-147.17;100.00;33278.22;5065636;27;51824;-62
2022/06/15 07:49:55;;;;;;;;;8.67;8.67;;;;;-147.17;100.00;33195.91;5071010;27;51661;-63
2022/06/15 07:52:43;;;;;;;;;8.67;8.67;;;;;-147.17;100.00;34081.94;5061097;28;51261;-62
2022/06/15 07:55:11;;;;;;;;;7.33;6.33;;;;;-147.17;100.00;36358.66;5071836;27;51059;-65
2022/06/15 07:57:36;;;;;;;;;9.00;9.00;;;;;-147.17;100.00;38346.22;5070973;28;51016;-63
2022/06/15 08:00:04;;;;;;;;;8.75;8.00;;;;;-147.17;100.00;37861.50;5071210;27;50957;-63
2022/06/15 08:02:29;;;;;;;;;8.00;8.00;;;;;-147.17;100.00;36654.88;5059325;27;51203;-62
2022/06/15 08:04:55;;;;;;;;;6.67;6.67;;;;;-147.17;100.00;36091.88;5061973;28;50993;-62
2022/06/15 08:07:20;;;;;;;;;7.33;7.33;;;;;-147.17;100.00;36378.28;5072266;28;51209;-62
2022/06/15 08:09:46;;;;;;;;;7.00;7.00;;;;;-147.17;100.00;36270.38;5061317;28;51081;-63
2022/06/15 08:12:12;;;;;;;;;7.00;7.00;;;;;-147.17;100.00;36413.59;5051631;28;51040;-63
2022/06/15 08:14:42;;;;;;;;;9.67;9.67;;;;;-147.17;100.00;36523.44;5051785;28;52048;-62
2022/06/15 08:17:11;;;;;;;;;6.00;6.00;;;;;-147.17;100.00;36911.84;5066130;28;51142;-63
2022/06/15 08:19:41;;;;;;;;;8.00;7.00;;;;;-147.17;100.00;37443.56;5054142;28;51222;-64
2022/06/15 08:22:08;;;;;;;;;9.00;8.67;;;;;-147.17;100.00;38079.34;5071502;28;51006;-63
2022/06/15 08:24:35;;;;;;;;;7.33;7.33;;;;;-147.17;100.00;38511.09;5075072;27;51194;-63
2022/06/15 08:27:01;;;;;;;;;9.33;6.33;;;;;-147.17;100.00;38942.91;5075461;28;51372;-63
2022/06/15 08:29:27;;;;;;;;;8.00;8.00;;;;;-147.17;100.00;39728.13;5073146;28;53865;-63
2022/06/15 08:31:57;;;;;;;;;8.33;8.33;;;;;-147.17;100.00;40234.69;5075241;27;50951;-63
2022/06/15 08:34:23;;;;;;;;;7.67;7.00;;;;;-147.17;100.00;40812.00;5074860;28;51033;-63
2022/06/15 08:36:49;;;;;;;;;7.00;7.00;;;;;-147.17;100.00;41185.13;5068637;28;54311;-63
2022/06/15 08:39:14;;;;;;;;;8.67;7.67;;;;;-147.17;100.00;41306.91;5054815;28;51170;-62
2022/06/15 08:41:42;;;;;;;;;9.00;7.67;;;;;-147.17;100.00;41432.59;5054558;28;51000;-63
2022/06/15 08:44:38;;;;;;;;;7.00;7.00;;;;;-147.17;100.00;41583.84;5054463;28;50962;-63
2022/06/15 08:47:28;;;;;;;;;7.00;7.00;;;;;-147.17;100.00;41966.88;5065785;28;51119;-62
2022/06/15 08:50:06;;;;;;;;;6.00;6.00;;;;;-147.17;100.00;42147.59;5054679;27;52085;-66
2022/06/15 08:52:45;;;;;;;;;8.67;8.67;;;;;-147.17;100.00;42434.44;5057148;28;51226;-62
2022/06/15 08:55:37;;;;;;;;;7.67;7.00;;;;;-147.17;100.00;42473.72;5074743;27;50904;-62
2022/06/15 08:58:13;;;;;;;;;6.00;5.67;;;;;-147.17;100.00;42406.91;5075023;27;51106;-63
2022/06/15 09:00:41;;;;;;;;;7.00;7.00;;;;;-147.17;100.00;42418.72;5072037;27;51887;-63
2022/06/15 09:03:36;;;;;;;;;6.33;6.33;;;;;-147.17;100.00;42568.03;5054433;28;50834;-62
2022/06/15 09:06:16;;;;;;;;;7.33;7.33;;;;;-147.17;100.00;42797.91;5054621;28;51103;-61
2022/06/15 09:09:13;;;;;;;;;6.67;6.67;;;;;-147.17;100.00;42850.94;5054401;28;51187;-62
2022/06/15 09:15:17;;;;;;;;;9.00;9.00;;;;;-147.17;100.00;42621.06;5073830;28;51067;-62
2022/06/15 09:17:44;;;;;;;;;6.33;6.33;;;;;-147.17;100.00;42632.84;5063894;27;51043;-62
2022/06/15 09:20:31;;;;;;;;;6.67;6.00;;;;;-147.17;100.00;42404.97;5055897;28;51388;-63
2022/06/15 09:23:02;;;;;;;;;9.67;8.67;;;;;-147.17;100.00;42351.91;5053689;28;51256;-62
2022/06/15 09:25:34;;;;;;;;;8.00;8.00;;;;;-147.17;100.00;42210.47;5053566;28;50990;-62
2022/06/15 09:28:06;;;;;;;;;8.00;8.00;;;;;-147.17;100.00;42037.59;5070115;28;51066;-63
2022/06/15 09:30:36;;;;;;;;;9.67;9.67;;;;;-147.17;100.00;41821.50;5065591;28;50960;-63
2022/06/15 09:33:18;;;;;;;;;7.00;7.00;;;;;-147.17;100.00;41509.22;5053100;28;51659;-63
2022/06/15 09:35:51;;;;;;;;;10.33;9.67;;;;;-147.17;100.00;41562.25;5053448;28;51020;-63
2022/06/15 09:38:17;;;;;;;;;8.67;8.67;;;;;-147.17;100.00;41432.59;5053385;28;51138;-62
2022/06/15 09:40:51;;;;;;;;;9.67;9.33;;;;;-147.17;100.00;41432.59;5053639;28;51140;-62
2022/06/15 09:43:22;;;;;;;;;11.00;11.00;;;;;-147.17;100.00;41579.91;5060720;28;51705;-63
2022/06/15 09:46:08;;;;;;;;;11.00;10.33;;;;;-147.17;100.00;41420.81;5070300;28;51098;-62
2022/06/15 09:48:41;;;;;;;;;8.33;8.33;;;;;-147.17;100.00;41456.19;5060213;28;51266;-64
2022/06/15 09:51:31;;;;;;;;;8.33;8.33;;;;;-147.17;100.00;41359.94;5068943;28;51350;-62
2022/06/15 09:54:23;;;;;;;;;10.00;10.00;;;;;-147.17;100.00;41361.91;5073744;27;51897;-64
2022/06/15 09:56:51;;;;;;;;;8.33;8.33;;;;;-147.17;100.00;41528.84;5073699;27;51145;-63
2022/06/15 09:59:19;;;;;;;;;8.33;8.33;;;;;-147.17;100.00;41629.03;5072768;27;50992;-63
2022/06/15 10:01:47;;;;;;;;;9.33;9.00;;;;;-147.17;100.00;41701.69;5066906;27;51310;-63
2022/06/15 10:04:27;;;;;;;;;6.33;6.33;;;;;-147.17;100.00;41660.44;5053182;28;51345;-63
2022/06/15 10:07:00;;;;;;;;;10.33;9.33;;;;;-147.17;100.00;41660.44;5052410;28;51200;-62
2022/06/15 10:09:29;;;;;;;;;10.00;9.00;;;;;-147.17;100.00;41843.13;5053189;28;51123;-62
2022/06/15 10:15:07;;;;;;;;;9.00;9.00;;;;;-147.17;100.00;41850.97;5032577;28;52037;-62
2022/06/15 10:17:38;;;;;;;;;10.33;10.33;;;;;-147.17;100.00;42122.06;5071141;27;51225;-63
2022/06/15 10:20:05;;;;;;;;;10.00;10.00;;;;;-147.17;100.00;42300.84;5053113;28;51038;-63
2022/06/15 10:22:37;;;;;;;;;10.00;10.00;;;;;-147.17;100.00;42568.03;5053015;28;51297;-62
2022/06/15 10:25:04;;;;;;;;;8.67;8.67;;;;;-147.17;100.00;42674.13;5052626;28;52251;-64
2022/06/15 10:27:37;;;;;;;;;15.33;14.33;;;;;-147.17;100.00;42898.09;5052925;28;51217;-63
2022/06/15 10:30:08;;;;;;;;;11.00;11.00;;;;;-147.17;100.00;43000.28;5053381;28;51071;-63
2022/06/15 10:32:37;;;;;;;;;14.00;12.00;;;;;-147.17;100.00;43173.19;5064129;28;50851;-64
2022/06/15 10:35:02;;;;;;;;;9.00;9.00;;;;;-147.17;100.00;43308.78;5071842;28;52727;-64
2022/06/15 10:37:51;;;;;;;;;10.00;9.33;;;;;-147.17;100.00;43361.84;5072023;28;51145;-63
2022/06/15 10:40:58;;;;;;;;;12.33;10.33;;;;;-147.17;100.00;43263.59;5072981;27;51284;-62
2022/06/15 10:43:31;;;;;;;;;8.67;8.67;;;;;-147.17;100.00;43322.53;5006617;28;52788;-63
2022/06/15 10:46:00;;;;;;;;;12.33;11.33;;;;;-147.17;100.00;43367.72;5046553;28;51250;-64
2022/06/15 10:48:52;;;;;;;;;9.00;9.00;;;;;-147.17;100.00;43338.25;5055563;28;51148;-62
2022/06/15 10:51:35;;;;;;;;;9.67;9.67;;;;;-147.17;100.00;43338.25;5062445;28;50886;-62
2022/06/15 10:54:21;;;;;;;;;10.33;9.33;;;;;-147.17;100.00;43334.31;5073235;27;51117;-64
2022/06/15 11:02:42;;;;;;;;;16.33;16.00;;;;;-147.17;100.00;43334.31;5051935;28;51069;-63
2022/06/15 11:05:21;;;;;;;;;7.67;7.67;;;;;-147.17;100.00;43352.00;5060943;28;51275;-62
2022/06/15 11:08:05;;;;;;;;;9.33;8.67;;;;;-147.17;100.00;43145.69;5071715;27;52086;-62
2022/06/15 11:10:37;;;;;;;;;14.33;13.67;;;;;-147.17;100.00;42792.00;5072314;27;50977;-62
2022/06/15 11:13:06;;;;;;;;;9.67;9.67;;;;;-147.17;100.00;42308.69;5053819;27;51186;-62
2022/06/15 11:18:38;;;;;;;;;10.33;10.00;;;;;-147.17;100.00;41684.03;5051474;28;51107;-63
2022/06/15 11:21:11;;;;;;;;;10.00;10.00;;;;;-147.17;100.00;41409.03;5051969;28;51351;-62
2022/06/15 11:23:57;;;;;;;;;11.00;11.00;;;;;-147.17;100.00;41012.31;5071816;27;51208;-62
2022/06/15 11:26:52;;;;;;;;;10.00;9.00;;;;;-147.17;100.00;40933.75;5071769;27;51051;-62
2022/06/15 11:29:38;;;;;;;;;10.00;10.00;;;;;-147.17;100.00;40788.44;5071266;27;51832;-62
2022/06/15 11:32:17;;;;;;;;;11.00;8.67;;;;;-147.17;100.00;40358.38;5071843;27;51141;-62
2022/06/15 11:35:12;;;;;;;;;9.00;9.00;;;;;-147.17;100.00;40381.94;5071819;27;51102;-62
2022/06/15 11:37:52;;;;;;;;;7.67;7.00;;;;;-147.17;100.00;41436.53;5066840;28;51230;-63
2022/06/15 11:40:36;;;;;;;;;12.67;10.33;;;;;-147.17;100.00;42338.16;5070799;27;51895;-63
2022/06/15 11:43:10;;;;;;;;;10.33;10.00;;;;;-147.17;100.00;43293.06;5062987;28;51209;-63
2022/06/15 11:45:45;;;;;;;;;10.67;10.00;;;;;-147.17;100.00;43857.06;5049940;28;51087;-62
2022/06/15 11:48:22;;;;;;;;;11.00;11.00;;;;;-147.17;100.00;44277.66;5051270;28;51036;-62
2022/06/15 11:51:04;;;;;;;;;12.33;12.00;;;;;-147.17;100.00;44623.63;5058138;28;51094;-63